createdAt,value
2018-08-25T00:02:12.299Z,431.60
2018-08-25T00:04:52.542Z,423.40
2018-08-25T00:07:34.302Z,404.10
2018-08-25T00:10:13.240Z,427.37
2018-08-25T00:12:54.194Z,389.57
2018-08-25T00:15:32.681Z,407.87
2018-08-25T00:18:13.422Z,387.80
2018-08-25T00:20:52.367Z,387.40
2018-08-25T00:23:31.161Z,429.23
2018-08-25T00:26:10.480Z,338.57
2018-08-25T00:28:49.361Z,378.93
2018-08-25T00:31:28.698Z,406.37
2018-08-25T00:34:08.538Z,327.73
2018-08-25T00:36:47.579Z,207.60
2018-08-25T00:39:26.197Z,249.03
2018-08-25T00:42:05.040Z,128.30
2018-08-25T00:44:44.540Z,91.37
2018-08-25T00:47:26.139Z,59.47
2018-08-25T00:50:06.781Z,101.03
2018-08-25T00:52:46.183Z,60.07
2018-08-25T00:55:26.220Z,56.03
2018-08-25T00:58:04.983Z,82.30
2018-08-25T01:00:43.480Z,136.37
2018-08-25T01:03:22.801Z,226.03
2018-08-25T01:06:01.600Z,363.87
2018-08-25T01:08:42.602Z,451.23
2018-08-25T01:11:22.142Z,487.70
2018-08-25T01:14:01.486Z,492.77
2018-08-25T01:16:40.503Z,427.93
2018-08-25T01:19:19.421Z,456.03
2018-08-25T01:21:57.982Z,411.87
2018-08-25T01:24:37.158Z,414.90
2018-08-25T01:27:15.942Z,465.13
2018-08-25T01:29:54.042Z,502.70
2018-08-25T01:32:32.381Z,381.20
2018-08-25T01:35:10.604Z,472.93
2018-08-25T01:37:50.618Z,347.63
2018-08-25T03:10:31.141Z,477.37
2018-08-25T03:13:10.260Z,423.10
2018-08-25T03:15:51.083Z,367.03
2018-08-25T03:18:29.806Z,441.27
2018-08-25T03:21:08.082Z,441.73
2018-08-25T03:23:51.081Z,488.00
2018-08-25T03:26:31.576Z,525.40
2018-08-25T03:29:11.297Z,479.43
2018-08-25T03:31:52.822Z,465.80
2018-08-25T03:34:32.202Z,493.80
2018-08-25T03:37:11.836Z,486.57
2018-08-25T03:39:50.121Z,489.10
2018-08-25T03:42:31.839Z,461.90
2018-08-25T03:45:13.942Z,423.97
2018-08-25T03:47:54.719Z,451.63
2018-08-25T03:50:33.918Z,409.70
2018-08-25T03:53:15.562Z,432.47
2018-08-25T03:55:56.041Z,460.03
2018-08-25T03:58:37.457Z,489.47
2018-08-25T04:01:15.999Z,537.30
2018-08-25T04:03:55.761Z,574.10
2018-08-25T04:06:36.805Z,563.00
2018-08-25T04:09:20.562Z,580.60
2018-08-25T04:12:02.783Z,616.37
2018-08-25T04:14:42.743Z,679.90
2018-08-25T04:17:22.001Z,588.07
2018-08-25T04:20:01.323Z,599.13
2018-08-25T04:22:40.618Z,634.87
2018-08-25T04:25:21.962Z,669.40
2018-08-25T04:28:05.513Z,541.63
2018-08-25T04:30:45.579Z,461.97
2018-08-25T04:33:26.260Z,435.60
2018-08-25T04:36:05.148Z,369.57
2018-08-25T04:38:46.440Z,305.87
2018-08-25T04:41:25.749Z,243.37
2018-08-25T04:44:04.358Z,304.43
2018-08-25T04:46:47.240Z,318.00
2018-08-25T04:49:28.786Z,308.63
2018-08-25T04:52:08.463Z,56.83
2018-08-25T04:54:48.599Z,219.00
2018-08-25T04:57:28.717Z,46.27
2018-08-25T05:00:07.862Z,86.37
2018-08-25T05:02:47.060Z,172.37
2018-08-25T05:05:26.224Z,83.87
2018-08-25T05:08:04.668Z,54.73
2018-08-25T05:10:42.583Z,111.90
2018-08-25T05:13:22.459Z,99.17
2018-08-25T05:16:04.005Z,127.57
2018-08-25T05:18:44.638Z,134.60
2018-08-25T05:21:24.764Z,419.00
2018-08-25T05:24:04.265Z,332.13
2018-08-25T05:26:44.025Z,606.03
2018-08-25T05:29:23.880Z,820.40
2018-08-25T05:32:04.999Z,760.93
2018-08-25T05:34:44.942Z,1012.23
2018-08-25T05:37:25.560Z,1197.50
2018-08-25T05:40:04.339Z,551.20
2018-08-25T05:42:44.680Z,1116.73
2018-08-25T05:45:22.260Z,1109.80
2018-08-25T05:48:01.643Z,1085.03
2018-08-25T05:50:41.005Z,1047.87
2018-08-25T05:53:19.959Z,1146.37
2018-08-25T05:56:00.044Z,1232.23
2018-08-25T05:58:39.298Z,1135.90
2018-08-25T06:01:19.390Z,687.00
2018-08-25T06:03:59.661Z,1291.80
2018-08-25T06:06:39.504Z,1180.63
2018-08-25T06:09:22.519Z,1242.73
2018-08-25T06:12:01.139Z,1309.53
2018-08-25T06:14:41.240Z,1151.43
2018-08-25T06:17:21.287Z,735.70
2018-08-25T06:19:59.586Z,1271.40
2018-08-25T06:22:39.436Z,706.60
2018-08-25T06:25:18.859Z,857.27
2018-08-25T06:27:59.856Z,1111.90
2018-08-25T06:30:39.158Z,1238.70
2018-08-25T06:33:20.985Z,979.27
2018-08-25T06:36:00.646Z,513.77
2018-08-25T06:38:42.640Z,319.27
2018-08-25T06:41:23.098Z,606.67
2018-08-25T06:44:01.850Z,1070.77
2018-08-25T06:46:43.695Z,698.80
2018-08-25T06:49:23.082Z,1096.80
2018-08-25T06:52:02.621Z,950.40
2018-08-25T06:54:39.999Z,634.80
2018-08-25T06:57:21.162Z,399.90
2018-08-25T06:59:58.938Z,817.97
2018-08-25T07:02:36.854Z,1135.80
2018-08-25T07:05:14.138Z,1250.07
2018-08-25T07:07:55.024Z,1019.93
2018-08-25T07:10:35.419Z,975.37
2018-08-25T07:13:15.880Z,711.50
2018-08-25T07:15:56.321Z,1050.70
2018-08-25T07:18:34.139Z,1177.20
2018-08-25T07:21:14.476Z,808.03
2018-08-25T07:23:54.583Z,1278.90
2018-08-25T07:26:35.758Z,1374.77
2018-08-25T08:55:50.200Z,1661.17
2018-08-25T08:58:29.476Z,1613.70
2018-08-25T09:01:09.325Z,1609.90
2018-08-25T09:03:48.321Z,1646.57
2018-08-25T09:06:28.088Z,1639.77
2018-08-25T09:09:06.498Z,1667.63
2018-08-25T09:11:47.995Z,1677.27
2018-08-25T09:14:26.085Z,1666.33
2018-08-25T09:17:04.825Z,1545.37
2018-08-25T09:19:47.602Z,1538.87
2018-08-25T09:22:26.824Z,1476.30
2018-08-25T09:25:05.658Z,597.00
2018-08-25T09:27:44.899Z,861.97
2018-08-25T09:30:27.183Z,762.07
2018-08-25T09:33:09.139Z,1157.90
2018-08-25T09:35:53.613Z,663.60
2018-08-25T09:38:39.405Z,1208.03
2018-08-25T09:41:21.720Z,805.43
2018-08-25T09:44:01.146Z,538.00
2018-08-25T09:46:43.698Z,988.73
2018-08-25T09:49:26.286Z,931.13
2018-08-25T09:52:10.019Z,860.53
2018-08-25T09:54:49.600Z,754.13
2018-08-25T09:57:31.719Z,780.07
2018-08-25T10:00:11.202Z,690.23
2018-08-25T10:02:53.939Z,806.33
2018-08-25T10:05:35.479Z,1354.80
2018-08-25T10:46:44.718Z,1370.70
2018-08-25T12:07:19.333Z,951.97
2018-08-25T12:10:01.572Z,1080.73
2018-08-25T12:12:44.153Z,1093.87
2018-08-25T12:15:24.491Z,1049.93
2018-08-25T12:18:04.855Z,994.33
2018-08-25T12:47:41.892Z,276.93
2018-08-25T12:50:20.171Z,348.07
2018-08-25T12:52:59.632Z,164.20
2018-08-25T12:55:39.333Z,161.20
2018-08-25T12:58:16.539Z,504.63
2018-08-25T13:01:00.815Z,566.70
2018-08-25T13:03:40.093Z,505.33
2018-08-25T13:06:19.869Z,394.57
2018-08-25T13:08:57.999Z,144.87
2018-08-25T13:11:38.613Z,550.57
2018-08-25T13:14:19.898Z,918.87
2018-08-25T13:17:04.794Z,415.73
2018-08-25T13:19:45.012Z,287.60
2018-08-25T13:22:26.577Z,961.40
2018-08-25T13:25:07.919Z,514.27
2018-08-25T13:27:51.034Z,1122.80
2018-08-25T13:30:31.072Z,270.13
2018-08-25T13:33:09.252Z,416.33
2018-08-25T13:35:47.855Z,424.60
2018-08-25T13:38:26.798Z,374.80
2018-08-25T13:41:05.107Z,1233.13
2018-08-25T13:43:44.004Z,254.83
2018-08-25T13:46:23.473Z,261.57
2018-08-25T13:49:06.356Z,1058.50
2018-08-25T13:51:44.896Z,558.70
2018-08-25T13:54:21.959Z,948.13
2018-08-25T13:57:03.274Z,569.07
2018-08-25T13:59:42.373Z,272.40
2018-08-25T14:02:22.838Z,243.50
2018-08-25T14:05:04.738Z,293.67
2018-08-25T14:07:46.253Z,230.77
2018-08-25T14:10:28.670Z,307.27
2018-08-25T14:13:10.029Z,247.63
2018-08-25T14:15:50.358Z,405.97
2018-08-25T14:18:31.113Z,235.00
2018-08-25T14:21:13.014Z,539.93
2018-08-25T14:23:53.553Z,1123.67
2018-08-25T14:26:36.459Z,533.07
2018-08-25T14:29:18.655Z,366.33
2018-08-25T14:31:56.952Z,335.70
2018-08-25T14:34:37.896Z,293.27
2018-08-25T14:37:16.874Z,288.80
2018-08-25T14:39:57.293Z,581.33
2018-08-25T14:42:36.582Z,425.70
2018-08-25T14:45:17.915Z,159.77
2018-08-25T14:47:54.773Z,383.77
2018-08-25T14:50:34.632Z,679.47
2018-08-25T14:53:14.823Z,587.10
2018-08-25T14:55:53.316Z,969.47
2018-08-25T14:58:30.908Z,453.50
2018-08-25T15:01:11.335Z,771.80
2018-08-25T15:03:48.375Z,323.50
2018-08-25T15:06:30.215Z,516.40
2018-08-25T15:09:15.191Z,1326.30
2018-08-25T15:11:53.771Z,1306.43
2018-08-25T15:14:34.001Z,895.20
2018-08-25T15:17:12.336Z,791.50
2018-08-25T15:19:54.435Z,942.97
2018-08-25T15:22:34.499Z,429.87
2018-08-25T15:25:15.052Z,387.87
2018-08-25T15:27:54.410Z,676.67
2018-08-25T15:30:32.019Z,784.83
2018-08-25T15:33:13.935Z,1118.17
2018-08-25T15:35:56.537Z,1214.60
2018-08-25T15:38:37.981Z,907.40
2018-08-25T15:41:16.994Z,1226.70
2018-08-25T15:43:55.073Z,1330.40
2018-08-25T15:46:35.351Z,1357.13
2018-08-25T15:49:13.633Z,1225.20
2018-08-25T15:51:56.461Z,1315.50
2018-08-25T15:54:35.373Z,1112.47
2018-08-25T15:57:15.394Z,676.10
2018-08-25T15:59:53.816Z,1278.07
2018-08-25T16:02:32.136Z,1276.90
2018-08-25T16:05:13.373Z,1239.40
2018-08-25T16:07:52.661Z,1252.77
2018-08-25T16:10:31.533Z,1312.10
2018-08-25T16:13:13.332Z,1307.37
2018-08-25T16:15:52.120Z,1299.90
2018-08-25T16:18:30.710Z,1106.67
2018-08-25T16:21:12.017Z,1310.47
2018-08-25T16:23:50.810Z,684.17
2018-08-25T16:26:29.950Z,1196.60
2018-08-25T16:29:07.715Z,1039.27
2018-08-25T16:31:48.952Z,998.43
2018-08-25T16:34:27.193Z,1045.17
2018-08-25T16:37:05.857Z,941.27
2018-08-25T16:39:45.291Z,1092.83
2018-08-25T16:42:24.057Z,1183.00
2018-08-25T18:11:32.505Z,806.70
2018-08-25T18:14:10.947Z,888.50
2018-08-25T18:16:51.907Z,885.03
2018-08-25T18:19:29.709Z,854.67
2018-08-25T18:22:09.469Z,853.03
2018-08-25T18:24:47.664Z,827.80
2018-08-25T18:27:28.984Z,780.37
2018-08-25T18:30:11.989Z,751.23
2018-08-25T18:32:53.168Z,555.07
2018-08-25T18:35:32.180Z,646.27
2018-08-25T18:38:10.886Z,457.73
2018-08-25T18:40:52.525Z,237.80
2018-08-25T18:43:40.785Z,486.57
2018-08-25T18:46:18.406Z,567.17
2018-08-25T18:48:56.664Z,557.30
2018-08-25T18:51:35.826Z,315.67
2018-08-25T18:54:16.057Z,467.27
2018-08-25T18:56:56.273Z,579.60
2018-08-25T18:59:35.877Z,560.67
2018-08-25T19:02:15.545Z,399.37
2018-08-25T19:04:53.830Z,458.27
2018-08-25T19:07:33.026Z,261.00
2018-08-25T19:10:15.170Z,264.70
2018-08-25T19:13:00.545Z,433.63
2018-08-25T19:15:38.026Z,459.03
2018-08-25T19:18:15.983Z,359.90
2018-08-25T19:20:59.569Z,361.77
2018-08-25T19:23:38.561Z,173.70
2018-08-25T19:26:17.049Z,126.43
2018-08-25T19:28:54.971Z,245.50
2018-08-25T19:31:34.911Z,100.73
2018-08-25T19:34:13.505Z,117.23
2018-08-25T19:36:53.726Z,108.60
2018-08-25T19:39:33.808Z,93.40
2018-08-25T19:42:11.958Z,105.27
2018-08-25T19:44:51.112Z,194.80
2018-08-25T19:47:30.767Z,246.73
2018-08-25T19:50:09.928Z,244.20
2018-08-25T19:52:49.166Z,385.30
2018-08-25T19:55:29.907Z,474.93
2018-08-25T19:58:10.527Z,521.10
2018-08-25T20:00:52.865Z,529.43
2018-08-25T20:03:31.548Z,502.97
2018-08-25T20:06:08.885Z,543.03
2018-08-25T20:08:50.215Z,449.83
2018-08-25T20:11:28.402Z,578.43
2018-08-25T20:14:05.662Z,743.27
2018-08-25T20:16:43.528Z,779.17
2018-08-25T20:19:25.332Z,843.00
2018-08-25T20:22:07.627Z,833.03
2018-08-25T20:24:48.828Z,813.77
2018-08-25T20:27:27.648Z,548.30
2018-08-25T20:30:08.597Z,438.37
2018-08-25T20:32:49.807Z,418.00
2018-08-25T20:35:29.945Z,533.80
2018-08-25T20:38:11.587Z,696.93
2018-08-25T20:40:53.035Z,839.53
2018-08-25T20:43:33.990Z,859.43
2018-08-25T20:46:15.682Z,910.37
2018-08-25T20:49:00.023Z,903.00
2018-08-25T20:51:48.443Z,869.23
2018-08-25T20:54:31.030Z,866.17
2018-08-25T20:57:09.725Z,947.73
2018-08-25T20:59:49.168Z,818.47
2018-08-25T21:02:29.187Z,891.37
2018-08-25T21:05:08.287Z,888.53
2018-08-25T21:07:50.050Z,780.33
2018-08-25T21:10:29.163Z,657.43
2018-08-25T21:13:12.227Z,699.37
2018-08-25T21:15:54.221Z,620.77
2018-08-25T21:18:32.302Z,541.27
2018-08-25T21:21:15.505Z,588.17
2018-08-25T21:23:59.268Z,500.20
2018-08-25T21:26:37.137Z,489.80
2018-08-25T21:29:18.130Z,343.33
2018-08-25T21:32:00.268Z,304.13
2018-08-25T21:34:42.427Z,255.93
2018-08-25T21:37:24.891Z,253.03
2018-08-25T21:40:06.005Z,215.80
2018-08-25T21:42:44.151Z,129.80
2018-08-25T21:45:24.592Z,171.63
2018-08-25T21:48:03.890Z,207.50
2018-08-25T21:50:48.442Z,217.73
2018-08-25T21:53:27.509Z,202.80
2018-08-25T21:56:05.222Z,278.37
2018-08-25T21:58:43.144Z,314.53
2018-08-25T23:25:00.847Z,187.37
2018-08-25T23:27:44.301Z,175.60
2018-08-25T23:30:24.491Z,132.70
2018-08-25T23:33:03.079Z,142.57
2018-08-25T23:35:42.604Z,149.43
2018-08-25T23:38:20.955Z,160.63
2018-08-25T23:41:03.181Z,161.00
2018-08-25T23:43:43.746Z,158.70
2018-08-25T23:46:24.420Z,192.73
2018-08-25T23:49:04.081Z,265.50
2018-08-25T23:51:43.601Z,354.23
2018-08-25T23:54:24.643Z,337.87
2018-08-25T23:57:05.082Z,345.53
2018-08-25T23:59:44.458Z,383.87
